Reiffton, Pennsylvania
Current Conditions -  °F | °C
As of 1:54 AM on Thursday 27 Nov 2014 (Local Time) from KRDG Reporting Station
Overcast Overcast  
Wind Chill: 29°   Ceiling: 6000
Heat Index: 35°   Visibility: 10mi
Dew Point: 29°   Wind: 7mph
Humidity: 78%   Direction: 280°W
Pressure: 29.95"   Gusts: NA
Location:  40.3351°N, 75.8521°W
Report Text: KRDG 270654Z 28006KT 10SM SCT025 OVC060 02/M02 A2995 RMK AO2 SLP150 T00171017
Loading
Personal Weather Stations






























Interactive Weather Map New forecast layout! Learn more

10-Day Weather Forecast

Advertisements
Track Severe Weather on mobile